createdAt,value
2019-05-02T00:00:38.000Z,52.9
2019-05-02T00:02:50.000Z,53.4
2019-05-02T00:05:02.000Z,53.6
2019-05-02T00:07:13.000Z,52.7
2019-05-02T00:09:25.000Z,52.4
2019-05-02T00:10:33.000Z,52.5
2019-05-02T00:11:40.000Z,52.2
2019-05-02T00:13:52.000Z,52.5
2019-05-02T00:16:04.000Z,54.6
2019-05-02T00:18:16.000Z,54.5
2019-05-02T00:20:28.000Z,53.6
2019-05-02T00:22:40.000Z,52.7
2019-05-02T00:24:51.000Z,53.1
2019-05-02T00:27:03.000Z,53.1
2019-05-02T00:29:15.000Z,54.5
2019-05-02T00:31:27.000Z,55.1
2019-05-02T00:32:34.000Z,55.5
2019-05-02T00:33:42.000Z,54.8
2019-05-02T00:35:54.000Z,55.7
2019-05-02T00:38:06.000Z,57
2019-05-02T00:40:18.000Z,56.7
2019-05-02T00:42:29.000Z,56.8
2019-05-02T00:44:41.000Z,57.7
2019-05-02T00:46:53.000Z,56.7
2019-05-02T00:49:05.000Z,57.1
2019-05-02T00:51:17.000Z,59.4
2019-05-02T00:53:29.000Z,58.5
2019-05-02T00:54:36.000Z,59.3
2019-05-02T00:55:44.000Z,58.7
2019-05-02T00:57:56.000Z,61.2
2019-05-02T01:00:07.000Z,100
2019-05-02T01:02:19.000Z,58.5
2019-05-02T01:04:31.000Z,57.5
2019-05-02T01:06:43.000Z,59.6
2019-05-02T01:08:55.000Z,60
2019-05-02T01:11:07.000Z,61.8
2019-05-02T01:13:19.000Z,59.1
2019-05-02T01:15:31.000Z,58.5
2019-05-02T01:16:38.000Z,57.6
2019-05-02T01:17:45.000Z,59.5
2019-05-02T01:19:57.000Z,60.3
2019-05-02T01:22:09.000Z,60.2
2019-05-02T01:24:21.000Z,58.3
2019-05-02T01:26:33.000Z,59.7
2019-05-02T01:28:45.000Z,58.2
2019-05-02T01:30:57.000Z,58.5
2019-05-02T01:33:09.000Z,58.4
2019-05-02T01:35:20.000Z,57.6
2019-05-02T01:37:32.000Z,56.7
2019-05-02T01:38:40.000Z,58.6
2019-05-02T01:39:47.000Z,58.7
2019-05-02T01:41:59.000Z,58.3
2019-05-02T01:44:11.000Z,58.6
2019-05-02T01:46:23.000Z,58.8
2019-05-02T01:48:35.000Z,59.2
2019-05-02T01:50:47.000Z,61.7
2019-05-02T01:52:58.000Z,62.5
2019-05-02T01:57:11.000Z,61.3
2019-05-02T01:59:23.000Z,61.4
2019-05-02T02:00:39.000Z,61.7
2019-05-02T02:01:46.000Z,63.2
2019-05-02T02:03:58.000Z,63.3
2019-05-02T02:06:10.000Z,63.3
2019-05-02T02:08:22.000Z,65.3
2019-05-02T02:10:33.000Z,65.2
2019-05-02T02:12:45.000Z,66
2019-05-02T02:14:57.000Z,66.6
2019-05-02T02:17:09.000Z,67.3
2019-05-02T02:19:21.000Z,67.2
2019-05-02T02:21:33.000Z,67.8
2019-05-02T02:22:40.000Z,67.8
2019-05-02T02:23:48.000Z,67.9
2019-05-02T02:26:00.000Z,68.3
2019-05-02T02:28:11.000Z,66
2019-05-02T02:30:23.000Z,67
2019-05-02T02:32:35.000Z,65.2
2019-05-02T02:34:47.000Z,66.1
2019-05-02T02:36:59.000Z,68.8
2019-05-02T02:39:11.000Z,66.6
2019-05-02T02:41:23.000Z,65.5
2019-05-02T02:43:35.000Z,63.4
2019-05-02T02:44:42.000Z,63.6
2019-05-02T02:45:50.000Z,63.9
2019-05-02T02:48:01.000Z,64.8
2019-05-02T02:50:13.000Z,63.3
2019-05-02T02:52:25.000Z,65.7
2019-05-02T02:54:37.000Z,64.5
2019-05-02T02:56:49.000Z,65.9
2019-05-02T02:59:01.000Z,64.7
2019-05-02T03:01:13.000Z,66.4
2019-05-02T03:03:25.000Z,67.5
2019-05-02T03:05:36.000Z,67.3
2019-05-02T03:06:44.000Z,65.3
2019-05-02T03:07:51.000Z,65.4
2019-05-02T03:12:15.000Z,65.3
2019-05-02T03:14:27.000Z,66.8
2019-05-02T03:16:39.000Z,65.3
2019-05-02T03:18:51.000Z,65.7
2019-05-02T03:21:03.000Z,65.3
2019-05-02T03:23:14.000Z,65.4
2019-05-02T03:25:26.000Z,65.9
2019-05-02T03:27:38.000Z,65
2019-05-02T03:28:46.000Z,64.1
2019-05-02T03:29:53.000Z,63.8
2019-05-02T03:32:05.000Z,65.3
2019-05-02T03:34:17.000Z,64.1
2019-05-02T03:36:29.000Z,64.9
2019-05-02T03:38:41.000Z,62.8
2019-05-02T03:40:52.000Z,63.9
2019-05-02T03:43:04.000Z,62.6
2019-05-02T03:45:16.000Z,60.8
2019-05-02T03:47:28.000Z,62.6
2019-05-02T03:49:40.000Z,63.6
2019-05-02T03:50:47.000Z,61.6
2019-05-02T03:51:55.000Z,60.7
2019-05-02T03:54:07.000Z,60.3
2019-05-02T03:56:19.000Z,59
2019-05-02T03:58:30.000Z,59
2019-05-02T04:00:42.000Z,59.4
2019-05-02T04:02:54.000Z,59.1
2019-05-02T04:05:06.000Z,58.7
2019-05-02T04:07:18.000Z,58.8
2019-05-02T04:09:30.000Z,57.8
2019-05-02T04:11:42.000Z,58.4
2019-05-02T04:12:49.000Z,60.1
2019-05-02T04:13:57.000Z,60.1
2019-05-02T04:16:08.000Z,59.5
2019-05-02T04:18:20.000Z,60.8
2019-05-02T04:20:32.000Z,59.3
2019-05-02T04:22:44.000Z,60.6
2019-05-02T04:24:56.000Z,59.4
2019-05-02T04:27:08.000Z,59.9
2019-05-02T04:29:20.000Z,61
2019-05-02T04:31:32.000Z,61.5
2019-05-02T04:33:43.000Z,62.7
2019-05-02T04:34:51.000Z,61.8
2019-05-02T04:35:58.000Z,62.5
2019-05-02T04:38:10.000Z,62.2
2019-05-02T04:40:22.000Z,62
2019-05-02T04:42:34.000Z,62.8
2019-05-02T04:44:46.000Z,63.4
2019-05-02T04:46:58.000Z,61.9
2019-05-02T04:49:10.000Z,61.9
2019-05-02T04:51:21.000Z,63.6
2019-05-02T04:53:33.000Z,62.9
2019-05-02T04:55:45.000Z,63.3
2019-05-02T04:56:53.000Z,63.4
2019-05-02T04:58:00.000Z,63.4
2019-05-02T05:00:12.000Z,63.9
2019-05-02T05:02:24.000Z,65.1
2019-05-02T05:04:36.000Z,65.5
2019-05-02T05:06:48.000Z,63.6
2019-05-02T05:08:59.000Z,65.1
2019-05-02T05:11:11.000Z,64.7
2019-05-02T05:13:23.000Z,64.5
2019-05-02T05:15:35.000Z,64.5
2019-05-02T05:17:47.000Z,65.5
2019-05-02T05:18:54.000Z,63.7
2019-05-02T05:20:02.000Z,63
2019-05-02T05:22:14.000Z,63.5
2019-05-02T05:24:26.000Z,63.4
2019-05-02T05:26:37.000Z,63.6
2019-05-02T05:28:49.000Z,62.4
2019-05-02T05:31:01.000Z,63.9
2019-05-02T05:33:13.000Z,63.5
2019-05-02T05:35:25.000Z,64.2
2019-05-02T05:37:37.000Z,63.1
2019-05-02T05:39:49.000Z,62.9
2019-05-02T05:40:56.000Z,62.4
2019-05-02T05:42:04.000Z,62
2019-05-02T05:44:15.000Z,61.7
2019-05-02T05:46:27.000Z,62.3
2019-05-02T05:48:39.000Z,61.8
2019-05-02T05:50:51.000Z,61.8
2019-05-02T05:53:03.000Z,62.5
2019-05-02T05:55:15.000Z,62.4
2019-05-02T05:57:27.000Z,63.3
2019-05-02T05:59:39.000Z,62.4
2019-05-02T06:01:50.000Z,63
2019-05-02T06:02:58.000Z,64.1
2019-05-02T06:04:05.000Z,64.9
2019-05-02T06:06:17.000Z,65.5
2019-05-02T06:08:29.000Z,65.6
2019-05-02T06:10:41.000Z,65.8
2019-05-02T06:12:53.000Z,67
2019-05-02T06:15:05.000Z,67.9
2019-05-02T06:17:17.000Z,68
2019-05-02T06:19:28.000Z,67.8
2019-05-02T06:21:40.000Z,67.1
2019-05-02T06:23:52.000Z,67.7
2019-05-02T06:25:00.000Z,66.7
2019-05-02T06:26:07.000Z,64.8
2019-05-02T06:28:19.000Z,65.7
2019-05-02T06:30:31.000Z,66
2019-05-02T06:32:43.000Z,65.9
2019-05-02T06:34:55.000Z,64.4
2019-05-02T06:37:06.000Z,62.6
2019-05-02T06:39:18.000Z,62.6
2019-05-02T06:41:30.000Z,63.1
2019-05-02T06:43:42.000Z,63.3
2019-05-02T06:45:54.000Z,61
2019-05-02T06:47:01.000Z,60.2
2019-05-02T06:48:09.000Z,60
2019-05-02T06:50:21.000Z,60.5
2019-05-02T06:52:33.000Z,61.6
2019-05-02T06:54:44.000Z,59.8
2019-05-02T06:56:56.000Z,61
2019-05-02T06:59:08.000Z,60.1
2019-05-02T07:01:20.000Z,57.7
2019-05-02T07:03:32.000Z,56.3
2019-05-02T07:05:44.000Z,57.2
2019-05-02T07:07:56.000Z,55.6
2019-05-02T07:09:03.000Z,55.2
2019-05-02T07:10:11.000Z,55.5
2019-05-02T07:12:23.000Z,55.1
2019-05-02T07:14:34.000Z,55.9
2019-05-02T07:16:46.000Z,52.5
2019-05-02T07:18:58.000Z,54.6
2019-05-02T07:21:10.000Z,50.9
2019-05-02T07:23:22.000Z,50.3
2019-05-02T07:25:34.000Z,49.6
2019-05-02T07:27:46.000Z,50.9
2019-05-02T07:29:58.000Z,49.8
2019-05-02T07:31:05.000Z,52.6
2019-05-02T07:32:12.000Z,48.7
2019-05-02T07:34:24.000Z,49.9
2019-05-02T07:36:36.000Z,50.8
2019-05-02T07:38:48.000Z,49
2019-05-02T07:41:00.000Z,49.6
2019-05-02T07:43:12.000Z,50
2019-05-02T07:45:24.000Z,49.1
2019-05-02T07:47:36.000Z,48.8
2019-05-02T07:49:47.000Z,49.3
2019-05-02T07:51:59.000Z,49.8
2019-05-02T07:53:07.000Z,48.4
2019-05-02T07:54:14.000Z,47.9
2019-05-02T07:56:26.000Z,47.4
